Farmersville's Hourly Summary for Saturday, May 12, 2018
Hour Temp
(f)
RH
(%)
Solar Rad.
(MJ/m2)
Rainfall
(in)
Wind
(mph)
5/12/2018 12:00 AM 74 66 0 0 4.32
5/12/2018 1:00 AM 73 70 0 0 5.25
5/12/2018 2:00 AM 73 75 0 0 4.75
5/12/2018 3:00 AM 73 76 0 0 5.64
5/12/2018 4:00 AM 71 81 0 0 4.75
5/12/2018 5:00 AM 70 85 0 0 4.16
5/12/2018 6:00 AM 71 83 0 0 4.89
5/12/2018 7:00 AM 71 84 0.02 0 2.93
5/12/2018 8:00 AM 71 84 0.37 0 2.77
5/12/2018 9:00 AM 73 79 0.86 0 4.74
5/12/2018 10:00 AM 75 72 0.76 0 6.13
5/12/2018 11:00 AM 77 65 1.6 0 6.95
5/12/2018 12:00 PM 79 59 2.15 0 6
5/12/2018 1:00 PM 82 52 2.6 0 6.68
5/12/2018 2:00 PM 83 50 2.27 0 5.32
5/12/2018 3:00 PM 84 48 2.37 0 6.03
5/12/2018 4:00 PM 85 46 2.22 0 5.66
5/12/2018 5:00 PM 85 48 1.8 0 5.28
5/12/2018 6:00 PM 85 46 1.11 0 4.84
5/12/2018 7:00 PM 84 48 0.78 0 4.39
5/12/2018 8:00 PM 82 50 0.31 0 2.92
5/12/2018 9:00 PM 78 57 0.01 0 0.87
5/12/2018 10:00 PM 75 66 0 0 1.42
5/12/2018 11:00 PM 74 70 0 0 1.41
Data Summary 77 65 19.23 0.00 4.50